Time;durP1;ratioP1;P1;durP2;ratioP2;P2;SDS_P1;SDS_P2;PMS_P1;PMS_P2;Temp;Humidity;BMP_temperature;BMP_pressure;BME280_temperature;BME280_humidity;BME280_pressure;Samples;Min_cycle;Max_cycle;Signal;HPM_P1;HPM_P2
2024/01/02 00:01:52;;;;;;;15.00;4.00;;;6.10;99.90;;;;;;5070092;28;20048;-68
2024/01/02 00:04:18;;;;;;;11.90;3.25;;;6.10;99.90;;;;;;5069783;28;20041;-68
2024/01/02 00:06:46;;;;;;;11.60;2.88;;;6.10;99.90;;;;;;5071248;28;20051;-68
2024/01/02 00:09:11;;;;;;;12.00;2.97;;;6.00;99.90;;;;;;5070486;28;20084;-68
2024/01/02 00:11:37;;;;;;;11.27;3.25;;;6.00;99.90;;;;;;5070091;28;20114;-74
2024/01/02 00:14:03;;;;;;;15.02;3.78;;;6.10;99.90;;;;;;5071002;28;20044;-68
2024/01/02 00:16:28;;;;;;;8.82;2.97;;;6.10;99.90;;;;;;5069169;28;20044;-68
2024/01/02 00:18:54;;;;;;;11.93;3.67;;;6.10;99.90;;;;;;5070298;28;20049;-68
2024/01/02 00:21:20;;;;;;;11.93;3.92;;;6.10;99.90;;;;;;5070068;28;20040;-68
2024/01/02 00:23:45;;;;;;;11.38;3.78;;;6.00;99.90;;;;;;5071260;28;20056;-68
2024/01/02 00:26:11;;;;;;;10.32;3.55;;;6.00;99.90;;;;;;5069207;28;20404;-75
2024/01/02 00:28:37;;;;;;;15.88;4.05;;;6.00;99.90;;;;;;5073130;28;20044;-68
2024/01/02 00:31:03;;;;;;;14.07;3.85;;;6.00;99.90;;;;;;5039969;28;20110;-68
2024/01/02 00:33:28;;;;;;;12.05;4.28;;;6.30;99.90;;;;;;5056898;28;20075;-68
2024/01/02 00:35:54;;;;;;;12.95;3.78;;;6.00;99.90;;;;;;5074824;28;20123;-68
2024/01/02 00:38:22;;;;;;;10.93;4.10;;;6.00;99.90;;;;;;5040166;28;20114;-68
2024/01/02 00:40:50;;;;;;;11.77;4.28;;;6.00;99.90;;;;;;5074569;28;20131;-68
2024/01/02 00:43:16;;;;;;;13.52;3.75;;;6.00;99.90;;;;;;5072642;28;20051;-68
2024/01/02 00:45:41;;;;;;;11.18;3.58;;;6.00;99.90;;;;;;5057431;28;20482;-68
2024/01/02 00:48:07;;;;;;;10.02;3.75;;;6.00;99.90;;;;;;5073268;28;20498;-68
2024/01/02 00:50:33;;;;;;;8.80;3.03;;;6.00;99.90;;;;;;5073727;28;20690;-68
2024/01/02 00:53:03;;;;;;;13.10;3.60;;;6.00;99.90;;;;;;5074526;28;20051;-68
2024/01/02 00:55:29;;;;;;;10.65;3.10;;;6.00;99.90;;;;;;5055480;28;20620;-68
2024/01/02 00:57:54;;;;;;;13.10;3.70;;;6.00;99.90;;;;;;5073042;28;20044;-71
2024/01/02 01:00:20;;;;;;;9.35;3.25;;;6.00;99.90;;;;;;5072674;28;20051;-68
2024/01/02 01:02:46;;;;;;;7.63;3.40;;;6.00;99.90;;;;;;5072815;28;20040;-68
2024/01/02 01:05:12;;;;;;;13.63;3.05;;;6.00;99.90;;;;;;5073767;28;20072;-68
2024/01/02 01:07:37;;;;;;;9.77;3.25;;;6.10;99.90;;;;;;5055816;28;20048;-69
2024/01/02 01:10:03;;;;;;;12.25;3.38;;;6.10;99.90;;;;;;5073946;28;20041;-68
2024/01/02 01:12:29;;;;;;;11.85;3.40;;;6.10;99.90;;;;;;5073790;28;20044;-68
2024/01/02 01:14:54;;;;;;;13.88;3.45;;;6.00;99.90;;;;;;5073806;28;20041;-69
2024/01/02 01:17:20;;;;;;;8.60;3.30;;;6.00;99.90;;;;;;5073533;28;20078;-69
2024/01/02 01:19:46;;;;;;;7.90;2.95;;;6.00;99.90;;;;;;5072695;28;20055;-68
2024/01/02 01:22:11;;;;;;;7.85;2.50;;;6.10;99.90;;;;;;5073864;28;20048;-68
2024/01/02 01:24:37;;;;;;;13.32;3.25;;;6.00;99.90;;;;;;5073591;28;20049;-72
2024/01/02 01:27:03;;;;;;;7.75;2.50;;;6.10;99.90;;;;;;5072614;28;20052;-68
2024/01/02 01:29:28;;;;;;;9.57;2.10;;;6.00;99.90;;;;;;5073342;28;20048;-68
2024/01/02 01:31:54;;;;;;;9.77;2.53;;;6.20;99.90;;;;;;5071963;28;20070;-69
2024/01/02 01:34:20;;;;;;;9.15;2.78;;;6.20;99.90;;;;;;5072321;28;20373;-78
2024/01/02 01:36:46;;;;;;;9.90;3.35;;;6.10;99.90;;;;;;5072776;28;20453;-73
2024/01/02 01:39:12;;;;;;;8.40;3.13;;;6.10;99.90;;;;;;5071042;28;20719;-69
2024/01/02 01:41:38;;;;;;;13.85;2.60;;;6.10;99.90;;;;;;5071743;28;20401;-78
2024/01/02 01:44:03;;;;;;;9.23;2.65;;;6.10;99.90;;;;;;5072864;28;20037;-70
2024/01/02 01:46:35;;;;;;;11.38;2.75;;;6.20;99.90;;;;;;5073041;28;20048;-70
2024/01/02 01:49:02;;;;;;;11.88;2.50;;;6.10;99.90;;;;;;5073822;28;20052;-69
2024/01/02 01:51:28;;;;;;;10.57;2.78;;;6.10;99.90;;;;;;5071386;28;20067;-70
2024/01/02 01:53:55;;;;;;;7.80;2.53;;;6.10;99.90;;;;;;5073109;28;20036;-69
2024/01/02 01:56:21;;;;;;;9.73;2.05;;;6.10;99.90;;;;;;5073331;28;20052;-70
2024/01/02 01:58:48;;;;;;;7.00;2.15;;;6.10;99.90;;;;;;5071740;28;20087;-70
2024/01/02 02:01:14;;;;;;;11.50;3.30;;;6.20;99.90;;;;;;5073179;28;20049;-71
2024/01/02 02:03:40;;;;;;;12.52;3.30;;;6.10;99.90;;;;;;5054907;28;20032;-70
2024/01/02 02:06:06;;;;;;;11.15;2.53;;;6.20;99.90;;;;;;5073107;28;20059;-71
2024/01/02 02:08:32;;;;;;;11.30;2.47;;;6.10;99.90;;;;;;5055286;28;20135;-71
2024/01/02 02:10:58;;;;;;;6.60;2.45;;;6.00;99.90;;;;;;5072306;28;20078;-71
2024/01/02 02:13:24;;;;;;;5.85;2.45;;;6.10;99.90;;;;;;5072891;28;20128;-73
2024/01/02 02:15:50;;;;;;;10.00;3.55;;;5.70;99.90;;;;;;5071634;28;20123;-71
2024/01/02 02:18:15;;;;;;;13.93;5.00;;;6.20;99.90;;;;;;5073046;28;20049;-72
2024/01/02 02:20:41;;;;;;;12.40;4.30;;;6.10;99.90;;;;;;5054974;28;20044;-72
2024/01/02 02:23:07;;;;;;;11.55;4.03;;;6.10;99.90;;;;;;5073291;28;20041;-72
2024/01/02 02:25:33;;;;;;;11.00;3.58;;;6.10;99.90;;;;;;5071776;28;20051;-72
2024/01/02 02:27:58;;;;;;;12.35;4.15;;;6.10;99.90;;;;;;5072979;28;20068;-71
2024/01/02 02:30:24;;;;;;;11.15;4.35;;;6.10;99.90;;;;;;5072647;28;20496;-72
2024/01/02 02:32:50;;;;;;;15.40;5.15;;;6.10;99.90;;;;;;5071012;28;20124;-71
2024/01/02 02:35:15;;;;;;;16.00;6.20;;;6.10;99.90;;;;;;5072214;28;20132;-71
2024/01/02 02:37:41;;;;;;;18.55;5.85;;;6.10;99.90;;;;;;5070812;28;20051;-71
2024/01/02 02:40:07;;;;;;;14.10;6.07;;;6.00;99.90;;;;;;5071340;28;20044;-71
2024/01/02 02:42:33;;;;;;;13.57;5.93;;;6.10;99.90;;;;;;5071845;28;20463;-72
2024/01/02 02:44:59;;;;;;;16.38;6.25;;;6.10;99.90;;;;;;5071138;28;20041;-71
2024/01/02 02:47:25;;;;;;;12.70;5.15;;;6.00;99.90;;;;;;5071061;28;20053;-72
2024/01/02 02:49:52;;;;;;;18.52;7.32;;;6.00;99.90;;;;;;5070471;28;20565;-72
2024/01/02 02:52:19;;;;;;;15.57;5.88;;;6.10;99.90;;;;;;5070744;28;20053;-73
2024/01/02 02:54:45;;;;;;;16.17;7.35;;;6.10;99.90;;;;;;5070991;28;20048;-72
2024/01/02 02:57:11;;;;;;;15.30;6.20;;;6.10;99.90;;;;;;5071857;28;20495;-72
2024/01/02 02:59:37;;;;;;;15.77;6.65;;;6.10;99.90;;;;;;5054192;28;20048;-73
2024/01/02 03:02:02;;;;;;;14.88;6.70;;;6.00;99.90;;;;;;5054225;28;20113;-72
2024/01/02 03:04:28;;;;;;;17.25;6.95;;;6.10;99.90;;;;;;5071040;28;20050;-72
2024/01/02 03:06:55;;;;;;;18.67;7.57;;;6.10;99.90;;;;;;5070404;28;20102;-72
2024/01/02 03:09:22;;;;;;;13.93;6.53;;;6.10;99.90;;;;;;5071294;28;20502;-72
2024/01/02 03:11:48;;;;;;;15.18;6.32;;;6.10;99.90;;;;;;5070647;28;20110;-76
2024/01/02 03:14:14;;;;;;;13.35;6.63;;;6.10;99.90;;;;;;5070984;28;20037;-72
2024/01/02 03:16:41;;;;;;;17.45;7.45;;;6.10;99.90;;;;;;5070925;28;20403;-72
2024/01/02 03:19:07;;;;;;;11.98;4.75;;;6.20;99.90;;;;;;5053606;28;20135;-73
2024/01/02 03:21:32;;;;;;;13.80;5.25;;;6.20;99.90;;;;;;5054319;28;20135;-72
2024/01/02 03:23:58;;;;;;;15.90;7.50;;;6.10;99.90;;;;;;5070103;28;20384;-72
2024/01/02 03:26:24;;;;;;;9.40;5.38;;;6.20;99.90;;;;;;5070755;28;20055;-72
2024/01/02 03:28:50;;;;;;;15.32;6.95;;;6.20;99.90;;;;;;5070737;28;20086;-72
2024/01/02 03:31:16;;;;;;;17.33;7.88;;;6.10;99.90;;;;;;5071571;28;20522;-74
2024/01/02 03:33:42;;;;;;;15.05;8.68;;;6.20;99.90;;;;;;5053679;28;20057;-73
2024/01/02 03:36:12;;;;;;;13.38;8.05;;;6.20;99.90;;;;;;5069835;28;20053;-72
2024/01/02 03:38:39;;;;;;;18.67;8.70;;;6.20;99.90;;;;;;5069829;28;20127;-77
2024/01/02 03:41:04;;;;;;;9.23;5.00;;;6.20;99.90;;;;;;5071335;28;20055;-72
2024/01/02 03:43:30;;;;;;;16.77;5.22;;;6.20;99.90;;;;;;5070343;28;20052;-72
2024/01/02 03:45:56;;;;;;;11.05;5.18;;;6.20;99.90;;;;;;5069658;28;20044;-72
2024/01/02 03:48:23;;;;;;;12.85;4.85;;;6.20;99.90;;;;;;5070794;28;20472;-72
2024/01/02 03:50:49;;;;;;;10.00;4.30;;;6.20;99.90;;;;;;5069587;28;20061;-73
2024/01/02 03:53:15;;;;;;;12.05;5.18;;;6.20;99.90;;;;;;5072186;28;20053;-73
2024/01/02 03:55:40;;;;;;;11.05;3.60;;;6.20;99.90;;;;;;5070724;28;20074;-80
2024/01/02 03:58:06;;;;;;;10.80;4.72;;;6.10;99.90;;;;;;5070610;28;20141;-73
2024/01/02 04:00:33;;;;;;;12.27;4.60;;;6.20;99.90;;;;;;5071374;28;20106;-73
2024/01/02 04:02:59;;;;;;;10.75;3.83;;;6.20;99.90;;;;;;5055166;28;20608;-73
2024/01/02 04:05:25;;;;;;;5.85;3.75;;;6.20;99.90;;;;;;5075810;28;20041;-73
2024/01/02 04:07:51;;;;;;;9.88;3.67;;;6.20;99.90;;;;;;5074825;28;20122;-74
2024/01/02 04:10:17;;;;;;;10.80;3.75;;;6.20;99.90;;;;;;5074388;28;20052;-73
2024/01/02 04:12:43;;;;;;;10.93;3.70;;;6.20;99.90;;;;;;5073753;28;20053;-78
2024/01/02 04:15:09;;;;;;;10.25;3.53;;;6.20;99.90;;;;;;5074568;28;20369;-72
2024/01/02 04:17:34;;;;;;;10.43;3.80;;;6.20;99.90;;;;;;5075666;28;20049;-72
2024/01/02 04:20:00;;;;;;;9.27;4.47;;;6.20;99.90;;;;;;5074918;28;20044;-72
2024/01/02 04:22:26;;;;;;;12.15;5.20;;;6.10;99.90;;;;;;5074832;28;20040;-76
2024/01/02 04:24:52;;;;;;;8.65;3.50;;;6.10;99.90;;;;;;5073333;28;20049;-72
2024/01/02 04:27:17;;;;;;;12.30;4.45;;;6.20;99.90;;;;;;5057162;28;20070;-73
2024/01/02 04:29:43;;;;;;;8.93;3.75;;;6.20;99.90;;;;;;5074003;28;20040;-76
2024/01/02 04:32:08;;;;;;;11.77;3.58;;;6.20;99.90;;;;;;5056621;28;20564;-74
2024/01/02 04:34:34;;;;;;;10.18;3.75;;;6.20;99.90;;;;;;5074653;28;20074;-73
2024/01/02 04:37:00;;;;;;;9.43;4.28;;;6.20;99.90;;;;;;5073682;28;20098;-73
2024/01/02 04:39:25;;;;;;;9.63;3.42;;;6.20;99.90;;;;;;5073312;28;20380;-74
2024/01/02 04:41:52;;;;;;;9.35;3.40;;;6.20;99.90;;;;;;5074646;28;20071;-74
2024/01/02 04:44:18;;;;;;;11.18;4.50;;;6.20;99.90;;;;;;5074568;28;20041;-75
2024/01/02 04:46:43;;;;;;;9.02;4.38;;;6.20;99.90;;;;;;5074676;28;20106;-74
2024/01/02 04:49:09;;;;;;;13.70;5.07;;;6.20;99.90;;;;;;5074551;28;20044;-75
2024/01/02 04:51:35;;;;;;;11.45;4.40;;;6.20;99.90;;;;;;5056241;28;20052;-75
2024/01/02 04:54:00;;;;;;;15.10;4.38;;;6.30;99.90;;;;;;5073009;28;20068;-74
2024/01/02 04:56:26;;;;;;;11.73;5.25;;;6.20;99.90;;;;;;5073948;28;20071;-74
2024/01/02 04:58:52;;;;;;;15.73;6.78;;;6.20;99.90;;;;;;5073197;28;20045;-73
2024/01/02 05:01:17;;;;;;;10.93;5.47;;;6.20;99.90;;;;;;5073584;28;20051;-73
2024/01/02 05:03:43;;;;;;;12.10;5.28;;;6.20;99.90;;;;;;5074602;28;20133;-73
2024/01/02 05:06:09;;;;;;;5.70;2.97;;;6.20;99.90;;;;;;5073202;28;20064;-73
2024/01/02 05:08:34;;;;;;;11.13;4.78;;;6.20;99.90;;;;;;5073381;28;20045;-75
2024/01/02 05:11:00;;;;;;;10.70;4.60;;;6.20;99.90;;;;;;5073063;28;20049;-74
2024/01/02 05:13:26;;;;;;;9.90;4.18;;;6.20;99.90;;;;;;5073020;28;20044;-75
2024/01/02 05:15:51;;;;;;;13.30;4.78;;;6.20;99.90;;;;;;5073167;28;20502;-78
2024/01/02 05:18:17;;;;;;;9.70;4.03;;;6.20;99.90;;;;;;5073426;28;20094;-74
2024/01/02 05:20:43;;;;;;;9.73;4.47;;;6.20;99.90;;;;;;5073281;28;20052;-74
2024/01/02 05:23:08;;;;;;;7.40;2.88;;;6.20;99.90;;;;;;5055805;28;20105;-73
2024/01/02 05:25:34;;;;;;;10.82;4.05;;;6.20;99.90;;;;;;5056373;28;20367;-73
2024/01/02 05:28:00;;;;;;;6.90;2.90;;;6.20;99.90;;;;;;5073103;28;20047;-73
2024/01/02 05:30:26;;;;;;;8.40;3.80;;;6.20;99.90;;;;;;5056438;28;20040;-73
2024/01/02 05:32:51;;;;;;;5.95;2.58;;;6.20;99.90;;;;;;5072807;28;20109;-74
2024/01/02 05:35:18;;;;;;;6.88;3.00;;;6.20;99.90;;;;;;5056172;28;20480;-74
2024/01/02 05:37:43;;;;;;;7.20;2.55;;;6.20;99.90;;;;;;5073135;28;20480;-74
2024/01/02 05:40:10;;;;;;;5.75;2.72;;;6.20;99.90;;;;;;5055751;28;20045;-76
2024/01/02 05:42:36;;;;;;;6.82;2.92;;;6.10;99.90;;;;;;5072952;28;20048;-75
2024/01/02 05:45:02;;;;;;;11.13;3.67;;;6.20;99.90;;;;;;5071958;28;20097;-75
2024/01/02 05:47:27;;;;;;;6.20;3.58;;;6.10;99.90;;;;;;5073076;28;20118;-75
2024/01/02 05:49:53;;;;;;;7.70;2.58;;;6.20;99.90;;;;;;5072759;28;20663;-75
2024/01/02 05:52:19;;;;;;;7.38;2.60;;;6.20;99.90;;;;;;5071290;28;20056;-75
2024/01/02 05:54:45;;;;;;;4.72;2.20;;;6.20;99.90;;;;;;5056426;28;20403;-75
2024/01/02 05:57:11;;;;;;;8.20;2.92;;;6.20;99.90;;;;;;5073037;28;20095;-76
2024/01/02 05:59:37;;;;;;;6.47;2.45;;;6.20;99.90;;;;;;5072725;28;20047;-74
2024/01/02 06:02:03;;;;;;;7.32;2.40;;;6.20;99.90;;;;;;5071640;28;20044;-74
2024/01/02 06:04:28;;;;;;;5.88;2.50;;;6.20;99.90;;;;;;5072029;28;20036;-74
2024/01/02 06:06:54;;;;;;;3.03;1.70;;;6.20;99.90;;;;;;5072379;28;20048;-74
2024/01/02 06:09:20;;;;;;;4.78;2.30;;;6.20;99.90;;;;;;5055482;28;20048;-74
2024/01/02 06:11:46;;;;;;;3.33;1.95;;;6.20;99.90;;;;;;5072103;28;20121;-73
2024/01/02 06:14:11;;;;;;;4.15;2.03;;;6.30;99.90;;;;;;5072694;28;20468;-75
2024/01/02 06:16:38;;;;;;;4.03;2.13;;;6.30;99.90;;;;;;5072182;28;20492;-72
2024/01/02 06:19:04;;;;;;;2.40;1.85;;;6.30;99.90;;;;;;5055530;28;20048;-72
2024/01/02 06:21:30;;;;;;;2.05;1.42;;;6.20;99.90;;;;;;5071929;28;20444;-72
2024/01/02 06:23:56;;;;;;;4.70;2.00;;;6.30;99.90;;;;;;5071421;28;20155;-72
2024/01/02 06:26:22;;;;;;;3.45;2.00;;;6.40;99.90;;;;;;5070781;28;20090;-72
2024/01/02 06:28:47;;;;;;;3.65;2.00;;;6.30;99.90;;;;;;5072026;28;20052;-72
2024/01/02 06:31:13;;;;;;;5.97;1.80;;;6.20;99.90;;;;;;5071633;28;20040;-72
2024/01/02 06:33:44;;;;;;;5.15;2.00;;;6.30;99.90;;;;;;5071696;28;20041;-72
2024/01/02 06:36:11;;;;;;;3.58;1.67;;;6.30;99.90;;;;;;5038996;28;20090;-72
2024/01/02 06:38:38;;;;;;;3.83;1.77;;;6.30;99.90;;;;;;5072082;28;20513;-72
2024/01/02 06:41:04;;;;;;;3.13;1.80;;;6.30;99.90;;;;;;5071280;28;20048;-75
2024/01/02 06:43:30;;;;;;;4.07;1.95;;;6.30;99.90;;;;;;5071354;28;20464;-72
2024/01/02 06:45:56;;;;;;;1.73;1.45;;;6.40;99.90;;;;;;5071765;28;20135;-73
2024/01/02 06:48:21;;;;;;;3.88;1.95;;;6.30;99.90;;;;;;5072420;28;20048;-73
2024/01/02 06:50:48;;;;;;;3.03;1.73;;;6.40;99.90;;;;;;5071490;28;20056;-72
2024/01/02 06:53:14;;;;;;;3.88;1.70;;;6.40;99.90;;;;;;5070693;28;20138;-73
2024/01/02 06:55:39;;;;;;;2.53;1.60;;;6.40;99.90;;;;;;5071137;28;20048;-74
2024/01/02 06:58:05;;;;;;;2.35;1.75;;;6.40;99.90;;;;;;5054974;28;20083;-76
2024/01/02 07:00:32;;;;;;;2.30;1.50;;;6.40;99.90;;;;;;5054847;28;20582;-72
2024/01/02 07:02:59;;;;;;;2.38;1.65;;;6.40;99.90;;;;;;5071848;28;20054;-72
2024/01/02 07:05:24;;;;;;;2.20;1.50;;;6.30;99.90;;;;;;5070515;28;20047;-72
2024/01/02 07:07:50;;;;;;;3.85;1.25;;;6.40;99.90;;;;;;5071169;28;20391;-72
2024/01/02 07:10:16;;;;;;;3.25;1.20;;;6.40;99.90;;;;;;5072063;28;20040;-72
2024/01/02 07:12:42;;;;;;;2.85;1.55;;;6.40;99.90;;;;;;5071454;28;20519;-72
2024/01/02 07:15:08;;;;;;;1.48;1.20;;;6.40;99.90;;;;;;5053750;28;20056;-75
2024/01/02 07:17:34;;;;;;;2.97;1.50;;;6.40;99.90;;;;;;5071214;28;20101;-72
2024/01/02 07:20:00;;;;;;;2.47;1.80;;;6.40;99.90;;;;;;5071245;28;20131;-72
2024/01/02 07:22:29;;;;;;;2.67;1.50;;;6.40;99.90;;;;;;5070586;28;20049;-72
2024/01/02 07:24:55;;;;;;;3.17;1.73;;;6.40;99.90;;;;;;5070364;28;20040;-72
2024/01/02 07:27:21;;;;;;;1.88;1.33;;;6.40;99.90;;;;;;5070252;28;20044;-72
2024/01/02 07:29:48;;;;;;;3.75;1.30;;;6.40;99.90;;;;;;5071395;28;20056;-73
2024/01/02 07:32:13;;;;;;;3.08;1.48;;;6.40;99.90;;;;;;5070341;28;20438;-73
2024/01/02 07:34:39;;;;;;;1.40;1.10;;;6.50;99.90;;;;;;5071161;28;20048;-73
2024/01/02 07:37:05;;;;;;;2.45;1.60;;;6.50;99.90;;;;;;5070311;28;20044;-72
2024/01/02 07:39:30;;;;;;;2.92;1.75;;;6.50;99.90;;;;;;5070731;28;20111;-71
2024/01/02 07:41:57;;;;;;;2.17;1.70;;;6.50;99.90;;;;;;5071168;28;20090;-73
2024/01/02 07:44:23;;;;;;;2.20;1.70;;;6.50;99.90;;;;;;5070191;28;20094;-73
2024/01/02 07:46:49;;;;;;;1.58;1.30;;;6.40;99.90;;;;;;5070975;28;20044;-72
2024/01/02 07:49:16;;;;;;;1.50;1.30;;;6.50;99.90;;;;;;5053846;28;20040;-73
2024/01/02 07:51:42;;;;;;;2.65;1.77;;;6.60;99.90;;;;;;5070233;28;20552;-72
2024/01/02 07:54:09;;;;;;;2.78;1.80;;;6.60;99.90;;;;;;5071086;28;20056;-72
2024/01/02 07:56:34;;;;;;;2.58;1.70;;;6.50;99.90;;;;;;5070564;28;20244;-72
2024/01/02 07:59:00;;;;;;;3.00;1.60;;;6.50;99.90;;;;;;5054391;28;20525;-71
2024/01/02 08:01:26;;;;;;;2.50;1.70;;;6.50;99.90;;;;;;5070519;28;20048;-71
2024/01/02 08:03:52;;;;;;;2.75;2.05;;;6.60;99.90;;;;;;5054266;28;20071;-71
2024/01/02 08:06:18;;;;;;;2.33;1.90;;;6.70;99.90;;;;;;5071305;28;20090;-74
2024/01/02 08:08:43;;;;;;;3.03;2.03;;;6.60;99.90;;;;;;5054124;28;20483;-73
2024/01/02 08:11:09;;;;;;;2.50;1.70;;;6.60;99.90;;;;;;5070746;28;20099;-72
2024/01/02 08:13:35;;;;;;;2.30;1.77;;;6.70;99.90;;;;;;5070490;28;20339;-72
2024/01/02 08:16:03;;;;;;;4.60;1.80;;;6.80;99.90;;;;;;5070498;28;20143;-71
2024/01/02 08:18:30;;;;;;;2.60;1.70;;;6.80;99.90;;;;;;5070286;28;20075;-72
2024/01/02 08:20:57;;;;;;;2.70;1.70;;;6.90;99.90;;;;;;5037603;28;20153;-72
2024/01/02 08:23:24;;;;;;;2.90;1.73;;;7.00;99.90;;;;;;5070199;28;20052;-72
2024/01/02 08:25:49;;;;;;;2.95;2.05;;;7.00;99.90;;;;;;5070184;28;20044;-72
2024/01/02 08:28:15;;;;;;;4.30;2.30;;;7.10;99.90;;;;;;5070542;28;20041;-72
2024/01/02 08:30:41;;;;;;;2.78;1.98;;;7.10;99.90;;;;;;5070259;28;20037;-72
2024/01/02 08:33:06;;;;;;;3.80;2.30;;;7.10;99.90;;;;;;5070582;28;20131;-71
2024/01/02 08:35:33;;;;;;;4.13;2.10;;;7.20;99.90;;;;;;5070346;28;20095;-71
2024/01/02 08:37:59;;;;;;;3.25;2.03;;;7.20;99.90;;;;;;5070819;28;20415;-71
2024/01/02 08:40:25;;;;;;;3.85;2.50;;;7.30;99.90;;;;;;5070162;28;20087;-71
2024/01/02 08:42:51;;;;;;;5.15;2.88;;;7.30;99.90;;;;;;5036870;28;20141;-72
2024/01/02 08:45:16;;;;;;;5.47;3.25;;;7.30;99.90;;;;;;5053294;28;20036;-72
2024/01/02 08:47:42;;;;;;;5.20;3.28;;;7.30;99.90;;;;;;5070324;28;20048;-72
2024/01/02 08:50:08;;;;;;;6.55;3.03;;;7.40;99.90;;;;;;5074948;28;20044;-72
2024/01/02 08:52:35;;;;;;;9.63;4.25;;;7.40;99.90;;;;;;5057040;28;20090;-72
2024/01/02 08:55:04;;;;;;;6.80;3.55;;;7.50;99.90;;;;;;5057503;28;20055;-72
2024/01/02 08:57:31;;;;;;;8.18;3.25;;;7.50;99.90;;;;;;5056822;28;20044;-72
2024/01/02 08:59:57;;;;;;;8.93;3.50;;;7.50;99.90;;;;;;5057178;28;20045;-72
2024/01/02 09:02:22;;;;;;;9.68;3.90;;;7.60;99.90;;;;;;5057094;28;20055;-73
2024/01/02 09:04:48;;;;;;;9.55;3.67;;;7.60;99.90;;;;;;5073543;28;20052;-72
2024/01/02 09:07:14;;;;;;;11.05;4.40;;;7.60;99.90;;;;;;5057270;28;20127;-72
2024/01/02 09:09:39;;;;;;;11.23;4.13;;;7.70;99.90;;;;;;5056919;28;20500;-72
2024/01/02 09:12:06;;;;;;;13.30;3.90;;;7.80;99.90;;;;;;5073839;28;20363;-72
2024/01/02 09:14:35;;;;;;;12.70;3.50;;;7.80;99.90;;;;;;5073636;28;20052;-72
2024/01/02 09:17:01;;;;;;;14.05;4.25;;;7.90;99.90;;;;;;5073835;28;20052;-72
2024/01/02 09:19:27;;;;;;;18.40;3.83;;;8.00;99.90;;;;;;5073393;28;20131;-73
2024/01/02 09:21:52;;;;;;;13.63;3.33;;;8.00;99.90;;;;;;5057082;28;20194;-72
2024/01/02 09:24:20;;;;;;;16.67;3.72;;;8.10;99.90;;;;;;5073534;28;20456;-72
2024/01/02 09:26:48;;;;;;;17.08;3.90;;;8.20;99.90;;;;;;5073143;28;20140;-74
2024/01/02 09:29:14;;;;;;;15.13;3.50;;;8.40;99.90;;;;;;5073083;28;20055;-73
2024/01/02 09:31:43;;;;;;;19.45;3.75;;;8.50;99.90;;;;;;5056467;28;20048;-74
2024/01/02 09:34:10;;;;;;;18.63;4.95;;;8.50;99.90;;;;;;5056574;28;20542;-73
2024/01/02 09:36:36;;;;;;;18.45;3.55;;;8.60;99.90;;;;;;5056217;28;20056;-73
2024/01/02 09:39:02;;;;;;;19.88;3.70;;;8.70;99.90;;;;;;5039725;28;20048;-74
2024/01/02 09:41:28;;;;;;;19.63;3.70;;;8.70;99.90;;;;;;5056571;28;20047;-78
2024/01/02 09:44:13;;;;;;;26.30;4.32;;;8.80;99.90;;;;;;5072547;28;20462;-74
2024/01/02 09:47:02;;;;;;;18.33;3.97;;;8.90;99.90;;;;;;5032072;28;20052;-74
2024/01/02 09:49:56;;;;;;;16.33;3.25;;;8.90;99.90;;;;;;5073062;28;20044;-76
2024/01/02 09:52:41;;;;;;;20.13;4.05;;;9.00;99.90;;;;;;5055832;28;20088;-77
2024/01/02 09:55:42;;;;;;;17.35;4.03;;;9.10;99.90;;;;;;5072556;28;20099;-77
2024/01/02 09:58:24;;;;;;;17.40;3.80;;;9.10;99.90;;;;;;5072076;28;20048;-76
2024/01/02 10:01:02;;;;;;;16.50;3.55;;;9.10;99.90;;;;;;5054776;28;20389;-77
2024/01/02 10:03:50;;;;;;;16.00;3.45;;;9.20;99.90;;;;;;5072691;28;20110;-76
2024/01/02 10:06:53;;;;;;;23.92;3.90;;;9.20;99.90;;;;;;5072591;28;20491;-76
2024/01/02 10:09:53;;;;;;;18.73;4.03;;;9.20;99.90;;;;;;5072890;28;20058;-76
2024/01/02 10:12:30;;;;;;;16.63;3.88;;;9.20;99.90;;;;;;5046959;28;20453;-76
2024/01/02 10:15:22;;;;;;;15.98;3.97;;;9.30;99.90;;;;;;5072325;28;20190;-75
2024/01/02 10:17:59;;;;;;;24.75;3.33;;;9.30;99.90;;;;;;5054424;28;20500;-75
2024/01/02 10:21:07;;;;;;;27.05;4.30;;;9.40;99.90;;;;;;5056009;28;20091;-75
2024/01/02 10:23:40;;;;;;;15.75;3.33;;;9.40;99.90;;;;;;5062363;28;20060;-75
2024/01/02 10:26:08;;;;;;;19.77;3.63;;;9.40;99.90;;;;;;5072117;28;20487;-75
2024/01/02 10:28:37;;;;;;;16.58;2.90;;;9.40;99.90;;;;;;5055377;28;20343;-77
2024/01/02 10:31:28;;;;;;;17.73;3.13;;;9.40;99.90;;;;;;5055551;28;20055;-77
2024/01/02 10:34:03;;;;;;;22.80;3.58;;;9.40;99.90;;;;;;5071977;28;20079;-74
2024/01/02 10:36:31;;;;;;;19.77;3.58;;;9.40;99.90;;;;;;5055555;28;20139;-77
2024/01/02 10:39:10;;;;;;;20.63;3.22;;;9.40;99.90;;;;;;5055140;28;20037;-76
2024/01/02 10:42:09;;;;;;;20.27;3.30;;;9.50;99.90;;;;;;5071867;28;20123;-77
2024/01/02 10:45:03;;;;;;;17.52;3.25;;;9.50;99.90;;;;;;5071860;28;20036;-77
2024/01/02 10:47:35;;;;;;;17.93;3.20;;;9.50;99.90;;;;;;5060639;28;20052;-77
2024/01/02 10:50:03;;;;;;;31.85;3.63;;;9.50;99.90;;;;;;5054973;28;20044;-75
2024/01/02 10:52:58;;;;;;;19.00;3.30;;;9.60;99.90;;;;;;5071418;28;20411;-76
2024/01/02 10:55:49;;;;;;;14.80;3.92;;;9.60;99.90;;;;;;5071927;28;20071;-75
2024/01/02 10:58:23;;;;;;;20.85;3.80;;;9.60;99.90;;;;;;5071687;28;20394;-76
2024/01/02 11:01:00;;;;;;;27.25;3.90;;;9.70;99.90;;;;;;5054669;28;20052;-76
2024/01/02 11:03:30;;;;;;;20.05;4.28;;;9.70;99.90;;;;;;5071710;28;20045;-76
2024/01/02 11:06:19;;;;;;;18.33;3.33;;;9.80;99.90;;;;;;5070945;28;20053;-77
2024/01/02 11:08:57;;;;;;;18.17;3.30;;;9.80;99.90;;;;;;5054212;28;20049;-78
2024/01/02 11:11:24;;;;;;;17.48;3.63;;;9.80;99.90;;;;;;5050663;28;20040;-77
2024/01/02 11:13:52;;;;;;;24.38;4.70;;;9.80;99.90;;;;;;5068061;28;20051;-79
2024/01/02 11:16:20;;;;;;;25.27;4.10;;;9.80;99.90;;;;;;5035046;28;20380;-76
2024/01/02 11:18:51;;;;;;;18.75;3.97;;;9.80;99.90;;;;;;5070911;28;20048;-77
2024/01/02 11:21:40;;;;;;;23.65;3.28;;;9.80;99.90;;;;;;5069323;28;20136;-77
2024/01/02 11:24:08;;;;;;;17.83;3.03;;;9.90;99.90;;;;;;5066868;28;20403;-79
2024/01/02 11:26:40;;;;;;;23.13;4.43;;;9.90;99.90;;;;;;5069666;28;20048;-77
2024/01/02 11:29:13;;;;;;;19.88;3.53;;;9.90;99.90;;;;;;5070759;28;20040;-79
2024/01/02 11:31:40;;;;;;;23.55;4.20;;;9.90;99.90;;;;;;5071144;28;20511;-79
2024/01/02 11:34:27;;;;;;;22.38;4.28;;;9.90;99.90;;;;;;5070848;28;20053;-80
2024/01/02 11:36:55;;;;;;;21.17;3.40;;;10.00;99.90;;;;;;5070639;28;20133;-77
2024/01/02 11:39:43;;;;;;;22.58;3.90;;;10.00;99.90;;;;;;5054449;28;20048;-78
2024/01/02 11:42:28;;;;;;;21.95;3.75;;;10.00;99.90;;;;;;5069630;28;20055;-76
2024/01/02 11:45:04;;;;;;;21.92;3.95;;;10.00;99.90;;;;;;5069363;28;20090;-76
2024/01/02 11:47:38;;;;;;;25.77;3.72;;;10.00;99.90;;;;;;5054827;28;20392;-78
2024/01/02 11:50:08;;;;;;;18.33;3.78;;;10.10;99.90;;;;;;5070998;28;20149;-77
2024/01/02 11:52:49;;;;;;;26.70;5.20;;;10.00;99.90;;;;;;5053559;28;20052;-82
2024/01/02 11:55:45;;;;;;;21.30;5.40;;;10.20;99.90;;;;;;5071751;28;20095;-82
2024/01/02 11:58:31;;;;;;;28.50;6.15;;;10.10;99.90;;;;;;5071894;28;20047;-84
2024/01/02 12:01:34;;;;;;;28.13;7.40;;;10.10;99.90;;;;;;5071383;28;20139;-81
2024/01/02 12:04:23;;;;;;;40.97;9.32;;;10.20;99.90;;;;;;5071530;28;20476;-85
2024/01/02 12:07:02;;;;;;;32.80;9.98;;;10.10;99.90;;;;;;5071381;28;20045;-78
2024/01/02 12:09:35;;;;;;;41.22;11.65;;;10.10;99.90;;;;;;5071350;28;20048;-80
2024/01/02 12:12:09;;;;;;;40.83;11.65;;;10.20;99.90;;;;;;5071047;28;20048;-83
2024/01/02 12:15:12;;;;;;;34.70;10.65;;;10.10;99.90;;;;;;5071568;28;20471;-79
2024/01/02 12:18:00;;;;;;;33.53;10.70;;;10.10;99.90;;;;;;5071763;28;20127;-84
2024/01/02 12:20:30;;;;;;;39.70;10.80;;;10.30;99.90;;;;;;5071272;28;20049;-83
2024/01/02 12:22:58;;;;;;;32.67;9.63;;;10.20;99.90;;;;;;5054637;28;20067;-84
2024/01/02 12:25:25;;;;;;;33.92;8.82;;;10.20;99.90;;;;;;5058790;28;20483;-82
2024/01/02 12:27:53;;;;;;;29.08;9.30;;;10.20;99.90;;;;;;5058840;28;20518;-81
2024/01/02 12:30:37;;;;;;;28.02;7.95;;;10.30;99.90;;;;;;5075666;28;20138;-81
2024/01/02 12:33:10;;;;;;;31.98;7.55;;;10.20;99.90;;;;;;5058964;28;20180;-82
2024/01/02 12:36:13;;;;;;;37.58;8.60;;;10.20;99.90;;;;;;5075259;28;20075;-79
2024/01/02 12:38:50;;;;;;;34.33;8.25;;;10.30;99.90;;;;;;5074763;28;20080;-80
2024/01/02 12:41:24;;;;;;;41.30;7.95;;;10.20;99.90;;;;;;5074520;28;20049;-82
2024/01/02 12:43:56;;;;;;;35.55;8.50;;;10.30;99.90;;;;;;5074328;28;20040;-83
2024/01/02 12:46:31;;;;;;;40.65;8.80;;;10.30;99.90;;;;;;5075203;28;20055;-83
2024/01/02 12:49:36;;;;;;;34.45;6.93;;;10.30;99.90;;;;;;5074858;28;20102;-82
2024/01/02 12:52:03;;;;;;;36.78;6.82;;;10.30;99.90;;;;;;4997795;28;20124;-82
2024/01/02 12:54:30;;;;;;;37.05;5.70;;;10.40;99.90;;;;;;4998215;28;20389;-83
2024/01/02 12:57:01;;;;;;;28.15;5.38;;;10.40;99.90;;;;;;5032540;28;20114;-83
2024/01/02 12:59:29;;;;;;;35.50;6.30;;;10.30;99.90;;;;;;5074964;28;20083;-82
2024/01/02 13:01:55;;;;;;;34.72;5.72;;;10.30;99.90;;;;;;5075262;28;20052;-83